Time;durP1;ratioP1;P1;durP2;ratioP2;P2;SDS_P1;SDS_P2;PMS_P1;PMS_P2;Temp;Humidity;BMP_temperature;BMP_pressure;BME280_temperature;BME280_humidity;BME280_pressure;Samples;Min_cycle;Max_cycle;Signal;HPM_P1;HPM_P2
2022/04/19 00:00:44;;;;;;;4.43;2.60;;;;;;;2.11;79.83;95193.88;5074712;28;20067;-75
2022/04/19 00:03:12;;;;;;;4.00;2.50;;;;;;;2.21;78.85;95194.13;5088021;28;20085;-75
2022/04/19 00:05:38;;;;;;;4.80;2.65;;;;;;;2.18;79.83;95192.75;5073475;28;20041;-75
2022/04/19 00:08:05;;;;;;;3.58;2.30;;;;;;;2.20;79.03;95190.75;5073798;28;20051;-74
2022/04/19 00:10:31;;;;;;;4.90;2.30;;;;;;;2.22;79.21;95193.91;5087364;28;20518;-75
2022/04/19 00:12:58;;;;;;;4.60;2.78;;;;;;;2.31;78.48;95188.38;5071653;28;20410;-75
2022/04/19 00:15:28;;;;;;;4.85;2.70;;;;;;;2.40;78.42;95187.06;5068569;28;20420;-74
2022/04/19 00:17:58;;;;;;;4.80;2.50;;;;;;;2.54;77.38;95185.81;5083259;28;20051;-74
2022/04/19 00:20:24;;;;;;;5.53;2.67;;;;;;;2.48;78.21;95178.91;5085502;28;20111;-75
2022/04/19 00:22:50;;;;;;;4.68;2.53;;;;;;;2.52;77.63;95180.03;5086152;28;20138;-75
2022/04/19 00:25:17;;;;;;;5.82;2.75;;;;;;;2.48;79.20;95173.72;5089021;28;20036;-76
2022/04/19 00:27:43;;;;;;;4.90;2.80;;;;;;;2.63;77.55;95164.66;5071950;28;20032;-75
2022/04/19 00:30:09;;;;;;;5.47;2.88;;;;;;;2.78;76.33;95178.78;5071976;28;20048;-76
2022/04/19 00:32:35;;;;;;;5.30;3.00;;;;;;;2.98;75.26;95171.66;5071610;28;20654;-75
2022/04/19 00:35:03;;;;;;;5.07;2.70;;;;;;;3.14;75.06;95165.72;5071043;28;20063;-76
2022/04/19 00:37:28;;;;;;;4.40;2.67;;;;;;;3.23;74.10;95156.53;5075611;28;20514;-75
2022/04/19 00:39:57;;;;;;;5.32;2.70;;;;;;;3.20;74.55;95154.38;5087116;28;20089;-76
2022/04/19 00:42:27;;;;;;;4.90;2.65;;;;;;;3.26;73.77;95150.88;5077593;28;20055;-76
2022/04/19 00:44:53;;;;;;;6.75;2.70;;;;;;;3.27;74.11;95149.84;5080853;28;20085;-76
2022/04/19 00:47:19;;;;;;;5.60;2.90;;;;;;;3.17;74.54;95144.44;5071245;28;20045;-76
2022/04/19 00:49:45;;;;;;;4.57;2.80;;;;;;;3.25;73.49;95141.47;5070199;28;20051;-75
2022/04/19 00:52:11;;;;;;;5.28;2.80;;;;;;;3.18;74.59;95135.63;5074234;28;20558;-76
2022/04/19 00:54:37;;;;;;;6.95;2.60;;;;;;;3.27;73.68;95129.03;5071620;28;20486;-75
2022/04/19 00:57:03;;;;;;;4.88;2.60;;;;;;;3.22;73.58;95131.56;5069938;28;20407;-75
2022/04/19 00:59:29;;;;;;;5.18;2.78;;;;;;;3.18;73.94;95125.22;5071030;28;20498;-76
2022/04/19 01:01:54;;;;;;;5.30;2.60;;;;;;;3.16;73.35;95122.09;5072551;28;20040;-75
2022/04/19 01:04:20;;;;;;;6.13;2.80;;;;;;;3.11;74.58;95124.56;5070890;28;20090;-76
2022/04/19 01:06:46;;;;;;;4.03;2.65;;;;;;;3.14;74.33;95121.50;5066116;28;20037;-75
2022/04/19 01:09:13;;;;;;;4.95;2.78;;;;;;;3.13;74.54;95112.13;5070218;28;20422;-75
2022/04/19 01:14:24;;;;;;;6.30;2.75;;;;;;;3.09;74.12;95111.03;5069195;28;20098;-76
2022/04/19 01:16:50;;;;;;;5.30;2.90;;;;;;;3.15;73.34;95104.91;5083066;28;20036;-75
2022/04/19 01:19:16;;;;;;;6.05;2.80;;;;;;;3.27;72.98;95103.03;5070099;28;20045;-75
2022/04/19 01:21:48;;;;;;;4.50;2.55;;;;;;;3.25;73.30;95110.28;5079153;28;20039;-76
2022/04/19 01:24:19;;;;;;;7.68;2.80;;;;;;;3.26;73.45;95098.06;5070535;28;20051;-76
2022/04/19 01:26:45;;;;;;;4.30;2.65;;;;;;;3.17;73.32;95097.63;5077144;28;20040;-75
2022/04/19 01:29:12;;;;;;;4.88;2.95;;;;;;;3.24;73.70;95098.28;5059259;28;20067;-75
2022/04/19 01:31:39;;;;;;;7.20;2.70;;;;;;;3.29;73.96;95101.00;5076312;28;20041;-75
2022/04/19 01:34:05;;;;;;;6.45;3.20;;;;;;;3.23;74.41;95096.72;5077124;28;20048;-75
2022/04/19 01:36:35;;;;;;;4.65;3.03;;;;;;;3.24;74.06;95087.88;5075780;28;20086;-75
2022/04/19 01:39:05;;;;;;;8.48;2.95;;;;;;;3.23;73.95;95091.53;5073947;28;20537;-75
2022/04/19 01:41:31;;;;;;;5.15;2.90;;;;;;;3.06;75.39;95090.66;5087194;28;20048;-75
2022/04/19 01:43:57;;;;;;;4.72;2.60;;;;;;;2.89;76.20;95096.63;5068880;28;20104;-75
2022/04/19 01:46:23;;;;;;;6.32;2.63;;;;;;;2.74;77.60;95088.50;5069553;28;20149;-75
2022/04/19 01:48:50;;;;;;;4.53;2.38;;;;;;;2.55;78.02;95085.28;5069279;28;20048;-76
2022/04/19 01:51:16;;;;;;;5.35;2.72;;;;;;;2.39;79.39;95087.56;5070065;28;20129;-76
2022/04/19 01:53:43;;;;;;;4.53;3.03;;;;;;;2.40;79.15;95090.97;5062898;28;20035;-76
2022/04/19 01:56:09;;;;;;;7.80;3.15;;;;;;;2.36;79.11;95085.41;5067648;28;20055;-76
2022/04/19 01:58:35;;;;;;;6.47;2.75;;;;;;;2.31;79.54;95079.31;5071599;28;20037;-75
2022/04/19 02:01:00;;;;;;;5.95;2.80;;;;;;;2.18;79.58;95086.31;5089921;28;20097;-74
2022/04/19 02:03:26;;;;;;;5.43;3.08;;;;;;;2.15;79.19;95081.59;5074528;28;20483;-74
2022/04/19 02:05:51;;;;;;;5.22;2.80;;;;;;;2.16;80.30;95077.97;5085423;28;20048;-75
2022/04/19 02:08:16;;;;;;;6.07;2.88;;;;;;;2.11;80.89;95080.44;5070201;28;20040;-76
2022/04/19 02:10:42;;;;;;;6.03;2.90;;;;;;;2.09;80.46;95077.31;5072781;28;20051;-75
2022/04/19 02:13:08;;;;;;;6.25;2.80;;;;;;;2.05;80.97;95078.78;5080786;28;20044;-75
2022/04/19 02:15:33;;;;;;;5.22;2.70;;;;;;;1.95;81.71;95075.94;5070856;28;20045;-75
2022/04/19 02:17:59;;;;;;;4.95;2.60;;;;;;;2.01;80.90;95069.84;5069264;28;20044;-75
2022/04/19 02:20:25;;;;;;;4.53;2.72;;;;;;;1.99;81.69;95077.88;5069446;28;20764;-76
2022/04/19 02:22:51;;;;;;;9.90;3.08;;;;;;;1.94;81.47;95074.38;5088102;28;20047;-75
2022/04/19 02:25:17;;;;;;;6.18;2.90;;;;;;;1.86;80.72;95076.28;5079163;28;20040;-75
2022/04/19 02:27:43;;;;;;;5.22;2.63;;;;;;;1.88;82.04;95074.25;5078288;28;20390;-75
2022/04/19 02:30:15;;;;;;;5.35;2.90;;;;;;;1.79;82.06;95078.19;5075145;28;20138;-75
2022/04/19 02:32:42;;;;;;;4.13;2.65;;;;;;;1.72;82.32;95073.13;5066772;28;20040;-75
2022/04/19 02:35:07;;;;;;;3.95;2.65;;;;;;;1.76;82.22;95076.03;5073377;28;20044;-75
2022/04/19 02:37:33;;;;;;;4.60;2.83;;;;;;;1.68;82.75;95081.56;5079241;28;20102;-75
2022/04/19 02:39:58;;;;;;;5.22;2.80;;;;;;;1.69;83.06;95068.34;5079035;28;20048;-75
2022/04/19 02:42:24;;;;;;;5.32;2.75;;;;;;;1.70;83.14;95069.16;5078265;28;20040;-75
2022/04/19 02:44:50;;;;;;;6.38;3.20;;;;;;;1.66;83.49;95073.22;5071496;28;20545;-75
2022/04/19 02:47:17;;;;;;;4.93;2.80;;;;;;;1.71;83.14;95068.13;5072269;28;20045;-75
2022/04/19 02:49:44;;;;;;;4.80;2.80;;;;;;;1.71;83.61;95081.09;5081767;28;20059;-75
2022/04/19 02:52:11;;;;;;;5.40;2.75;;;;;;;1.74;84.01;95072.91;5059044;28;20249;-75
2022/04/19 02:54:37;;;;;;;5.03;2.70;;;;;;;1.79;83.83;95062.63;5079406;28;20532;-75
2022/04/19 02:57:03;;;;;;;5.60;2.92;;;;;;;1.83;83.45;95063.75;5078095;28;20043;-75
2022/04/19 02:59:29;;;;;;;5.22;2.80;;;;;;;1.78;83.77;95061.06;5071263;28;20044;-75
2022/04/19 03:01:54;;;;;;;5.45;3.03;;;;;;;1.89;83.58;95046.50;5069563;28;20052;-75
2022/04/19 03:04:20;;;;;;;6.63;2.78;;;;;;;2.00;82.84;95055.31;5070082;28;20044;-76
2022/04/19 03:06:49;;;;;;;6.97;2.85;;;;;;;2.15;81.15;95053.03;5066201;28;20518;-75
2022/04/19 03:09:14;;;;;;;4.97;2.75;;;;;;;2.28;80.32;95053.81;5083376;28;20547;-75
2022/04/19 03:11:40;;;;;;;4.53;2.83;;;;;;;2.32;79.28;95047.94;5067309;28;20041;-76
2022/04/19 03:14:06;;;;;;;5.32;2.70;;;;;;;2.42;79.02;95044.75;5069781;28;20109;-75
2022/04/19 03:16:33;;;;;;;5.28;2.80;;;;;;;2.54;78.06;95045.53;5075666;28;20040;-76
2022/04/19 03:18:58;;;;;;;4.97;2.70;;;;;;;2.63;77.75;95039.97;5079318;28;20115;-76
2022/04/19 03:21:24;;;;;;;5.28;2.80;;;;;;;2.71;77.13;95042.19;5087751;28;20135;-76
2022/04/19 03:29:17;;;;;;;4.43;2.67;;;;;;;2.84;76.64;95039.31;5074757;28;20044;-75
2022/04/19 03:31:42;;;;;;;6.00;2.80;;;;;;;2.86;76.02;95029.50;5084240;28;20114;-76
2022/04/19 03:34:08;;;;;;;4.68;2.67;;;;;;;3.08;75.59;95042.63;5084153;28;20071;-76
2022/04/19 03:36:34;;;;;;;4.60;2.60;;;;;;;3.13;75.47;95034.13;5081388;28;20494;-77
2022/04/19 03:38:59;;;;;;;5.60;2.40;;;;;;;3.18;75.35;95042.03;5071034;28;20041;-76
2022/04/19 03:41:25;;;;;;;3.88;2.40;;;;;;;3.25;74.91;95037.47;5089435;28;20131;-76
2022/04/19 03:43:52;;;;;;;8.48;2.80;;;;;;;3.25;74.51;95032.25;5070926;28;20041;-76
2022/04/19 03:46:18;;;;;;;4.05;2.35;;;;;;;3.31;74.60;95037.56;5060497;28;20041;-76
2022/04/19 03:48:43;;;;;;;5.03;2.60;;;;;;;3.37;74.01;95034.00;5077950;28;20044;-76
2022/04/19 03:51:09;;;;;;;4.90;2.67;;;;;;;3.41;74.02;95035.13;5092689;28;20051;-76
2022/04/19 03:53:34;;;;;;;3.72;2.33;;;;;;;3.42;73.90;95036.69;5078175;28;20048;-76
2022/04/19 03:56:00;;;;;;;4.28;2.50;;;;;;;3.47;73.44;95039.38;5081434;28;20462;-76
2022/04/19 03:58:27;;;;;;;6.25;2.88;;;;;;;3.52;73.22;95036.88;5059333;28;20043;-76
2022/04/19 04:00:54;;;;;;;4.43;2.50;;;;;;;3.53;73.39;95037.66;5090735;28;20060;-76
2022/04/19 04:03:20;;;;;;;4.85;2.42;;;;;;;3.53;72.97;95038.41;5079588;28;20040;-75
2022/04/19 04:05:45;;;;;;;4.22;2.42;;;;;;;3.47;73.15;95034.16;5073206;28;20106;-75
2022/04/19 04:08:11;;;;;;;8.13;2.60;;;;;;;3.47;72.99;95042.75;5070983;28;20040;-76
2022/04/19 04:10:36;;;;;;;5.60;2.70;;;;;;;3.52;73.23;95036.88;5082536;28;20040;-77
2022/04/19 04:13:04;;;;;;;5.60;2.75;;;;;;;3.49;72.72;95037.31;5077377;28;20037;-76
2022/04/19 04:15:29;;;;;;;4.57;2.55;;;;;;;3.39;72.93;95037.16;5072260;28;20052;-75
2022/04/19 04:17:55;;;;;;;6.00;2.75;;;;;;;3.41;73.71;95035.13;5083945;28;20040;-76
2022/04/19 04:20:21;;;;;;;5.47;2.60;;;;;;;3.44;73.17;95032.03;5072847;28;20063;-75
2022/04/19 04:22:46;;;;;;;4.70;2.40;;;;;;;3.38;73.09;95033.00;5069963;28;20047;-75
2022/04/19 04:25:12;;;;;;;6.38;2.60;;;;;;;3.38;73.42;95040.81;5078159;28;20036;-77
2022/04/19 04:27:38;;;;;;;5.38;2.80;;;;;;;3.32;73.03;95032.13;5072898;28;20110;-77
2022/04/19 04:30:06;;;;;;;5.40;2.60;;;;;;;3.35;73.39;95038.66;5082377;28;20048;-77
2022/04/19 04:32:32;;;;;;;4.60;2.42;;;;;;;3.31;72.90;95034.97;5088449;28;20098;-76
2022/04/19 04:34:57;;;;;;;4.68;2.58;;;;;;;3.31;73.58;95034.97;5077749;28;20045;-76
2022/04/19 04:37:23;;;;;;;5.05;2.67;;;;;;;3.32;74.13;95036.50;5071237;28;20068;-76
2022/04/19 04:39:48;;;;;;;6.18;2.80;;;;;;;3.26;73.63;95038.25;5078964;28;20049;-76
2022/04/19 04:42:14;;;;;;;5.00;2.50;;;;;;;3.28;73.30;95042.19;5071176;28;20044;-76
2022/04/19 04:44:39;;;;;;;4.03;2.33;;;;;;;3.38;73.33;95030.41;5065564;28;20032;-76
2022/04/19 04:49:49;;;;;;;3.70;2.33;;;;;;;3.33;73.38;95038.09;5089835;28;20086;-76
2022/04/19 04:52:15;;;;;;;5.57;2.40;;;;;;;3.36;72.89;95027.22;5084224;28;20268;-76
2022/04/19 04:54:43;;;;;;;6.10;2.60;;;;;;;3.37;73.18;95034.00;5063901;28;20044;-76
2022/04/19 04:57:09;;;;;;;3.60;2.30;;;;;;;3.43;72.84;95023.47;5060752;28;20045;-76
2022/04/19 04:59:35;;;;;;;5.22;2.40;;;;;;;3.49;72.50;95021.72;5074445;28;20044;-78
2022/04/19 05:02:03;;;;;;;4.07;2.42;;;;;;;3.53;72.70;95033.22;5076575;28;20538;-73
2022/04/19 05:04:29;;;;;;;4.18;2.60;;;;;;;3.63;72.02;95027.38;5070808;28;20037;-73
2022/04/19 05:06:54;;;;;;;5.72;2.72;;;;;;;3.69;71.77;95025.66;5070757;28;20045;-73
2022/04/19 05:09:20;;;;;;;5.47;2.42;;;;;;;3.72;72.26;95027.78;5079361;28;20048;-73
2022/04/19 05:11:46;;;;;;;7.90;2.60;;;;;;;3.73;73.31;95031.97;5086894;28;20048;-73
2022/04/19 05:14:15;;;;;;;5.53;2.50;;;;;;;3.82;72.01;95020.13;5066415;28;20040;-73
2022/04/19 05:16:42;;;;;;;6.65;2.47;;;;;;;3.83;72.08;95029.50;5072185;28;20044;-73
2022/04/19 05:19:08;;;;;;;5.95;2.70;;;;;;;3.92;71.88;95025.50;5072520;28;20047;-73
2022/04/19 05:21:33;;;;;;;4.25;2.53;;;;;;;3.92;72.49;95030.72;5055516;28;20053;-73
2022/04/19 05:23:58;;;;;;;3.97;2.40;;;;;;;3.97;71.59;95028.16;5064183;28;20048;-74
2022/04/19 05:26:28;;;;;;;4.40;2.40;;;;;;;4.06;71.63;95030.34;5080396;28;20505;-73
2022/04/19 05:28:54;;;;;;;4.53;2.42;;;;;;;4.20;70.88;95031.59;5057603;28;20058;-74
2022/04/19 05:31:20;;;;;;;5.60;2.55;;;;;;;4.33;70.13;95031.25;5085150;28;20045;-74
2022/04/19 05:33:45;;;;;;;5.47;2.65;;;;;;;4.43;69.50;95035.00;5082441;28;20506;-76
2022/04/19 05:36:12;;;;;;;5.80;2.55;;;;;;;4.50;69.26;95027.81;5070205;28;20041;-76
2022/04/19 05:38:38;;;;;;;5.35;2.78;;;;;;;4.60;68.84;95025.31;5068786;28;20089;-75
2022/04/19 05:41:04;;;;;;;5.43;2.35;;;;;;;4.63;68.23;95030.03;5066776;28;20051;-76
2022/04/19 05:43:29;;;;;;;6.05;2.70;;;;;;;4.68;69.37;95027.50;5077720;28;20433;-76
2022/04/19 05:45:57;;;;;;;6.85;2.70;;;;;;;4.77;68.89;95034.88;5073104;28;20449;-74
2022/04/19 05:48:24;;;;;;;4.63;2.50;;;;;;;4.80;68.75;95034.41;5073481;28;20138;-73
2022/04/19 05:50:50;;;;;;;7.07;2.75;;;;;;;4.98;68.43;95041.88;5071218;28;20445;-73
2022/04/19 05:53:15;;;;;;;7.07;2.80;;;;;;;5.09;67.99;95042.00;5071475;28;20040;-75
2022/04/19 05:55:41;;;;;;;4.75;2.53;;;;;;;5.16;67.02;95037.38;5086159;28;20050;-74
2022/04/19 05:58:06;;;;;;;7.97;2.70;;;;;;;5.22;67.20;95039.00;5068186;28;20044;-74
2022/04/19 06:00:32;;;;;;;4.50;2.50;;;;;;;5.20;67.33;95038.44;5069619;28;20037;-73
2022/04/19 06:05:41;;;;;;;4.93;2.83;;;;;;;5.48;66.69;95039.22;5061363;28;20033;-75
2022/04/19 06:08:07;;;;;;;5.07;2.80;;;;;;;5.55;66.65;95045.03;5052900;28;20110;-74
2022/04/19 06:10:33;;;;;;;5.13;2.70;;;;;;;5.72;65.24;95043.06;5058110;28;20067;-74
2022/04/19 06:12:58;;;;;;;4.68;2.40;;;;;;;5.78;66.06;95043.13;5049817;28;20048;-74
2022/04/19 06:15:24;;;;;;;5.32;2.70;;;;;;;5.91;65.20;95042.69;5063417;28;20045;-75
2022/04/19 06:17:49;;;;;;;4.80;2.65;;;;;;;6.04;65.04;95047.50;5078573;28;20390;-73
2022/04/19 06:20:15;;;;;;;8.20;2.60;;;;;;;5.99;64.96;95039.66;5069524;28;20045;-74
2022/04/19 06:22:41;;;;;;;4.85;2.72;;;;;;;6.06;65.02;95045.44;5069392;28;20536;-74
2022/04/19 06:25:07;;;;;;;10.18;2.80;;;;;;;6.26;64.65;95041.38;5085528;28;20045;-75
2022/04/19 06:27:32;;;;;;;3.85;2.40;;;;;;;6.35;63.82;95032.00;5070232;28;20037;-74
2022/04/19 06:29:58;;;;;;;4.90;2.75;;;;;;;6.62;63.35;95028.47;5076625;28;20597;-77
2022/04/19 06:32:25;;;;;;;7.47;3.00;;;;;;;6.76;61.27;95032.16;5069279;28;20062;-75
2022/04/19 06:34:53;;;;;;;4.75;2.70;;;;;;;6.92;60.77;95040.06;5070140;28;20067;-75
2022/04/19 06:37:19;;;;;;;4.00;2.40;;;;;;;6.90;60.77;95036.94;5061128;28;20044;-75
2022/04/19 06:39:45;;;;;;;6.57;3.05;;;;;;;6.94;60.79;95038.00;5076140;28;20078;-74
2022/04/19 06:42:11;;;;;;;4.70;2.65;;;;;;;6.85;61.07;95034.28;5070686;28;20690;-75
2022/04/19 06:44:37;;;;;;;4.20;2.65;;;;;;;6.97;60.78;95031.44;5068401;28;20036;-76
2022/04/19 06:47:03;;;;;;;4.97;2.70;;;;;;;6.97;61.02;95036.69;5069593;28;20037;-77
2022/04/19 06:49:28;;;;;;;5.18;2.70;;;;;;;7.03;62.11;95036.44;5069652;28;20074;-77
2022/04/19 06:51:54;;;;;;;8.07;2.88;;;;;;;7.06;61.98;95035.94;5068649;28;20494;-76
2022/04/19 06:54:20;;;;;;;6.15;2.65;;;;;;;7.22;61.18;95030.72;5076495;28;20040;-74
2022/04/19 06:56:45;;;;;;;7.70;3.05;;;;;;;7.17;60.81;95030.72;5066963;28;20036;-74
2022/04/19 06:59:12;;;;;;;5.88;3.08;;;;;;;7.32;60.64;95038.59;5064300;28;20550;-74
2022/04/19 07:01:40;;;;;;;5.80;3.08;;;;;;;7.32;60.07;95033.34;5069651;28;20048;-74
2022/04/19 07:04:08;;;;;;;5.63;2.60;;;;;;;7.39;61.47;95033.88;5073039;28;20583;-77
2022/04/19 07:06:34;;;;;;;10.32;2.88;;;;;;;7.44;61.06;95025.25;5072409;28;20051;-77
2022/04/19 07:09:00;;;;;;;4.85;2.83;;;;;;;7.57;60.62;95023.94;5069672;28;20036;-77
2022/04/19 07:11:25;;;;;;;10.10;3.47;;;;;;;7.68;61.83;95030.75;5082100;28;20105;-75
2022/04/19 07:13:51;;;;;;;7.95;3.50;;;;;;;7.63;61.15;95028.94;5066917;28;20033;-77
2022/04/19 07:16:17;;;;;;;6.65;3.22;;;;;;;7.72;60.04;95025.81;5076437;28;20063;-77
2022/04/19 07:18:42;;;;;;;9.45;3.40;;;;;;;7.69;59.61;95027.09;5080958;28;20037;-77
2022/04/19 07:26:40;;;;;;;6.57;3.73;;;;;;;7.76;60.18;95032.09;5070530;28;20697;-77
2022/04/19 07:29:10;;;;;;;10.43;4.10;;;;;;;7.87;59.60;95033.63;5049454;28;20045;-77
2022/04/19 07:31:44;;;;;;;9.45;4.25;;;;;;;7.94;59.99;95028.13;5076912;28;20117;-76
2022/04/19 07:34:10;;;;;;;9.20;4.20;;;;;;;7.96;59.60;95036.53;5069805;28;20383;-75
2022/04/19 07:36:42;;;;;;;7.65;4.30;;;;;;;7.91;59.97;95023.41;5056519;28;20049;-75
2022/04/19 07:39:09;;;;;;;7.68;4.20;;;;;;;7.93;58.71;95026.56;5068947;28;20433;-75
2022/04/19 07:41:35;;;;;;;7.95;4.20;;;;;;;8.12;58.73;95027.59;5071709;28;20614;-76
2022/04/19 07:44:04;;;;;;;9.93;4.40;;;;;;;8.32;58.65;95023.34;5095370;28;20119;-75
2022/04/19 07:46:31;;;;;;;7.32;4.40;;;;;;;8.36;57.63;95024.41;5077302;28;20111;-75
2022/04/19 07:48:57;;;;;;;9.05;4.78;;;;;;;8.51;57.90;95025.44;5079244;28;20036;-75
2022/04/19 07:51:23;;;;;;;10.50;4.75;;;;;;;8.57;56.52;95026.97;5068166;28;20037;-75
2022/04/19 07:53:49;;;;;;;17.45;5.53;;;;;;;8.72;56.28;95024.31;5067704;28;20041;-74
2022/04/19 07:56:15;;;;;;;9.25;5.13;;;;;;;8.58;56.67;95018.06;5067767;28;20040;-75
2022/04/19 07:58:42;;;;;;;10.85;4.72;;;;;;;8.47;58.09;95020.69;5074246;28;20052;-75
2022/04/19 08:01:11;;;;;;;10.95;5.20;;;;;;;8.71;58.46;95021.94;5076413;28;20074;-76
2022/04/19 08:03:37;;;;;;;12.00;5.18;;;;;;;8.73;56.76;95023.22;5074785;28;20028;-76
2022/04/19 08:06:03;;;;;;;11.68;5.53;;;;;;;8.85;56.77;95020.31;5078779;28;20788;-76
2022/04/19 08:08:29;;;;;;;11.75;5.00;;;;;;;8.96;56.88;95021.81;5071714;28;20063;-75
2022/04/19 08:10:55;;;;;;;9.90;5.40;;;;;;;9.13;55.73;95016.19;5082538;28;20052;-76
2022/04/19 08:13:20;;;;;;;12.23;5.20;;;;;;;9.05;55.97;95019.41;5083592;28;20064;-78
2022/04/19 08:15:46;;;;;;;10.55;5.32;;;;;;;9.15;56.08;95006.22;5063952;28;20037;-77
2022/04/19 08:18:14;;;;;;;11.82;5.57;;;;;;;9.36;54.40;95013.97;5065391;28;20044;-76
2022/04/19 08:20:43;;;;;;;11.23;5.00;;;;;;;9.72;53.15;95008.44;5081829;28;20071;-74
2022/04/19 08:23:10;;;;;;;10.32;4.90;;;;;;;9.81;54.73;95009.44;5073653;28;20118;-73
2022/04/19 08:25:37;;;;;;;9.90;5.03;;;;;;;9.81;53.39;95001.53;5070802;28;20796;-74
2022/04/19 08:28:03;;;;;;;9.57;5.07;;;;;;;10.00;53.30;95000.84;5079771;28;20447;-74
2022/04/19 08:30:29;;;;;;;11.65;5.40;;;;;;;10.12;50.58;94997.84;5077064;28;20674;-75
2022/04/19 08:32:55;;;;;;;13.57;5.38;;;;;;;10.14;52.02;95001.75;5072694;28;20041;-74
2022/04/19 08:35:21;;;;;;;11.68;5.30;;;;;;;10.21;50.64;95001.41;5073765;28;20044;-74
2022/04/19 08:37:47;;;;;;;11.35;5.07;;;;;;;10.27;49.83;94994.25;5072561;28;20044;-74
2022/04/19 08:40:13;;;;;;;10.85;5.65;;;;;;;10.26;51.09;94995.31;5077958;28;20054;-73
2022/04/19 08:42:40;;;;;;;14.75;5.75;;;;;;;10.37;50.63;94999.44;5079958;28;20063;-74
2022/04/19 08:45:08;;;;;;;10.27;5.75;;;;;;;10.39;50.55;94997.31;5072336;28;20048;-74
2022/04/19 08:47:46;;;;;;;24.75;6.15;;;;;;;10.55;50.58;95001.34;5075643;28;20503;-73
2022/04/19 08:50:17;;;;;;;12.18;5.80;;;;;;;10.61;49.82;94998.66;5071553;28;20058;-74
2022/04/19 08:52:44;;;;;;;14.10;5.38;;;;;;;10.81;50.39;94995.75;5084739;28;20044;-73
2022/04/19 08:57:55;;;;;;;13.90;5.88;;;;;;;10.98;49.55;94997.16;5069249;28;20052;-73
2022/04/19 09:00:23;;;;;;;14.15;6.30;;;;;;;10.92;49.32;94991.94;5071069;28;20048;-73
2022/04/19 09:02:53;;;;;;;18.60;6.68;;;;;;;10.96;50.51;94994.00;5070655;28;20044;-72
2022/04/19 09:05:26;;;;;;;10.43;5.78;;;;;;;11.00;49.75;94989.72;5068813;28;20465;-74
2022/04/19 09:07:57;;;;;;;10.98;6.00;;;;;;;10.70;49.21;94987.22;5067152;28;20050;-74
2022/04/19 09:10:34;;;;;;;12.57;6.57;;;;;;;10.66;50.22;94990.69;5064006;28;20106;-73
2022/04/19 09:13:20;;;;;;;13.88;6.43;;;;;;;10.70;49.91;94997.75;5070497;28;20146;-73
2022/04/19 09:15:46;;;;;;;12.02;6.25;;;;;;;10.73;49.80;94991.91;5076243;28;20036;-73
2022/04/19 09:18:24;;;;;;;33.00;8.43;;;;;;;10.90;49.73;94991.44;5068320;28;20490;-73
2022/04/19 09:20:51;;;;;;;13.73;6.93;;;;;;;10.91;49.77;94985.09;5076882;28;20043;-73
2022/04/19 09:23:17;;;;;;;14.38;6.75;;;;;;;10.92;49.99;94989.31;5087761;28;20692;-74
2022/04/19 09:25:44;;;;;;;12.43;6.43;;;;;;;11.17;48.72;94990.00;5078394;28;20041;-73
2022/04/19 09:28:17;;;;;;;16.17;6.72;;;;;;;11.51;49.29;94989.00;5058775;28;20037;-74
2022/04/19 09:30:45;;;;;;;12.13;6.50;;;;;;;11.39;49.21;94991.28;5089655;28;20070;-73
2022/04/19 09:33:14;;;;;;;13.60;7.05;;;;;;;11.48;49.61;94989.56;5072513;28;20048;-73
2022/04/19 09:35:47;;;;;;;18.52;6.88;;;;;;;11.52;48.35;94985.28;5070066;28;20490;-73
2022/04/19 09:38:13;;;;;;;14.52;6.88;;;;;;;11.77;48.54;94970.13;5078165;28;20049;-73
2022/04/19 09:40:47;;;;;;;13.88;7.20;;;;;;;11.91;48.38;94970.94;5070930;28;20045;-73
2022/04/19 09:43:18;;;;;;;16.17;6.95;;;;;;;11.99;47.51;94971.38;5067003;28;20120;-73
2022/04/19 09:45:50;;;;;;;15.07;6.85;;;;;;;11.98;47.38;94964.53;5083767;28;20052;-73
2022/04/19 09:48:21;;;;;;;15.18;7.35;;;;;;;11.86;46.52;94967.63;5070364;28;20044;-73
2022/04/19 09:50:55;;;;;;;14.00;7.50;;;;;;;11.89;47.81;94967.81;5070244;28;20048;-73
2022/04/19 09:53:22;;;;;;;15.45;7.63;;;;;;;11.66;46.83;94968.75;5073951;28;20409;-73
2022/04/19 09:55:52;;;;;;;15.93;8.10;;;;;;;11.93;47.28;94963.53;5072871;28;20044;-73
2022/04/19 09:58:19;;;;;;;14.43;7.32;;;;;;;11.71;46.68;94966.81;5065986;28;20040;-73
2022/04/19 10:00:46;;;;;;;15.45;7.43;;;;;;;11.83;46.54;94968.97;5068466;28;20504;-73
2022/04/19 10:08:40;;;;;;;14.15;7.63;;;;;;;11.80;47.33;94964.28;5074059;28;20072;-73
2022/04/19 10:11:07;;;;;;;13.85;7.75;;;;;;;12.05;47.11;94959.66;5058481;28;20045;-73
2022/04/19 10:13:33;;;;;;;17.00;7.80;;;;;;;12.06;47.13;94950.69;5066639;28;20043;-72
2022/04/19 10:16:00;;;;;;;15.95;8.10;;;;;;;11.89;48.97;94951.22;5072771;28;20494;-73
2022/04/19 10:18:26;;;;;;;14.80;7.55;;;;;;;11.76;46.82;94952.75;5074451;28;20049;-73
2022/04/19 10:20:53;;;;;;;16.25;7.82;;;;;;;11.97;46.81;94953.22;5065838;28;20051;-75
2022/04/19 10:23:19;;;;;;;16.30;7.95;;;;;;;11.89;47.26;94951.97;5088564;28;20045;-75
2022/04/19 10:25:46;;;;;;;15.93;8.10;;;;;;;12.09;46.39;94950.09;5079690;28;20098;-75
2022/04/19 10:28:14;;;;;;;19.30;8.20;;;;;;;12.20;45.46;94951.47;5049529;28;20039;-74
2022/04/19 10:30:52;;;;;;;19.05;8.82;;;;;;;12.10;46.86;94946.38;5102094;28;20040;-74
2022/04/19 10:33:51;;;;;;;18.17;7.75;;;;;;;12.60;46.27;94943.81;5075014;28;20094;-74
2022/04/19 10:36:37;;;;;;;16.23;8.40;;;;;;;12.95;45.66;94933.56;5063723;28;20049;-76
2022/04/19 10:39:12;;;;;;;25.77;9.20;;;;;;;12.96;45.50;94935.13;5067990;28;20044;-76
2022/04/19 10:41:48;;;;;;;13.23;7.65;;;;;;;13.16;44.75;94933.13;5069639;28;20036;-76
2022/04/19 10:44:22;;;;;;;15.32;8.18;;;;;;;13.69;42.84;94929.75;5072361;28;20713;-77
2022/04/19 10:47:05;;;;;;;14.30;8.30;;;;;;;14.02;43.53;94926.81;5057193;28;20051;-77
2022/04/19 10:49:30;;;;;;;22.90;8.13;;;;;;;13.24;42.95;94924.47;5066973;28;20064;-75
2022/04/19 10:52:00;;;;;;;15.68;7.97;;;;;;;13.10;45.43;94923.75;5070202;28;20044;-76
2022/04/19 10:55:04;;;;;;;18.98;8.32;;;;;;;13.76;43.42;94918.75;5066293;28;20102;-74
2022/04/19 11:00:29;;;;;;;16.30;8.80;;;;;;;13.41;43.16;94912.50;5081663;28;20131;-74
2022/04/19 11:03:02;;;;;;;16.75;8.00;;;;;;;13.21;43.89;94909.22;5083873;28;20564;-75
2022/04/19 11:05:52;;;;;;;16.33;8.73;;;;;;;13.13;44.12;94910.72;5069928;28;20119;-74
2022/04/19 11:08:24;;;;;;;16.33;8.82;;;;;;;13.13;44.06;94907.28;5069939;28;20037;-74
2022/04/19 11:10:51;;;;;;;14.73;8.48;;;;;;;12.82;44.62;94913.28;5080207;28;20071;-75
2022/04/19 11:13:17;;;;;;;15.23;8.43;;;;;;;13.09;43.13;94906.34;5078293;28;20048;-76
2022/04/19 11:15:43;;;;;;;15.25;8.90;;;;;;;13.14;44.94;94906.22;5071649;28;20486;-76
2022/04/19 11:18:26;;;;;;;14.35;8.32;;;;;;;12.80;44.25;94904.84;5068024;28;20052;-72
2022/04/19 11:20:54;;;;;;;15.45;8.55;;;;;;;13.29;44.17;94902.44;5062991;28;20048;-72
2022/04/19 11:23:22;;;;;;;16.23;8.52;;;;;;;13.72;43.15;94901.94;5065658;28;20139;-74
2022/04/19 11:25:49;;;;;;;15.30;8.20;;;;;;;14.03;42.38;94907.19;5067862;28;20032;-76
2022/04/19 11:28:23;;;;;;;18.05;9.05;;;;;;;15.03;40.27;94893.56;5058275;28;20029;-75
2022/04/19 11:30:55;;;;;;;13.57;7.68;;;;;;;14.97;40.81;94889.47;5074080;28;20558;-74
2022/04/19 11:33:41;;;;;;;16.50;9.00;;;;;;;15.01;40.75;94895.72;5078929;28;20036;-74
2022/04/19 11:36:08;;;;;;;16.90;8.68;;;;;;;15.01;39.95;94893.06;5068682;28;20063;-75
2022/04/19 11:38:43;;;;;;;15.57;8.80;;;;;;;15.17;39.69;94888.06;5088517;28;20047;-74
2022/04/19 11:46:45;;;;;;;20.05;9.65;;;;;;;15.50;38.74;94879.59;5064643;28;20494;-74
2022/04/19 11:49:20;;;;;;;18.20;9.95;;;;;;;15.97;37.77;94882.28;5079326;28;20041;-74
2022/04/19 11:51:46;;;;;;;16.65;9.23;;;;;;;16.55;36.37;94873.84;5080785;28;20111;-75
2022/04/19 11:54:26;;;;;;;23.58;9.38;;;;;;;16.77;37.20;94865.56;5067155;28;20044;-73
2022/04/19 11:56:53;;;;;;;19.05;8.85;;;;;;;16.42;37.00;94873.00;5078007;28;20044;-74
2022/04/19 11:59:31;;;;;;;17.15;9.43;;;;;;;16.89;36.02;94866.78;5071285;28;20421;-74
2022/04/19 12:01:58;;;;;;;15.80;9.20;;;;;;;16.51;36.46;94862.34;5074258;28;20041;-75
2022/04/19 12:04:25;;;;;;;17.17;9.10;;;;;;;16.97;35.12;94858.72;5081473;28;20059;-75
2022/04/19 12:06:58;;;;;;;17.80;8.90;;;;;;;16.22;36.37;94861.25;5063130;28;20410;-74
2022/04/19 12:09:24;;;;;;;16.25;9.77;;;;;;;16.17;37.04;94861.44;5075912;28;20037;-76
2022/04/19 12:11:50;;;;;;;14.35;8.95;;;;;;;16.67;37.04;94855.34;5085116;28;20040;-76
2022/04/19 12:14:32;;;;;;;16.83;9.43;;;;;;;15.88;37.25;94857.66;5074940;28;20048;-75